createdAt,value
2023-04-05T00:00:20.757Z,96248.97
2023-04-05T00:01:22.452Z,96248.66
2023-04-05T00:02:24.787Z,96243.84
2023-04-05T00:03:26.618Z,96246.97
2023-04-05T00:04:28.830Z,96246.97
2023-04-05T00:05:30.681Z,96243.84
2023-04-05T00:06:32.338Z,96237.16
2023-04-05T00:07:34.311Z,96247.88
2023-04-05T00:08:36.064Z,96246.81
2023-04-05T00:09:37.673Z,96247.09
2023-04-05T00:10:39.922Z,96257.25
2023-04-05T00:11:41.690Z,96250.53
2023-04-05T00:12:43.227Z,96251.31
2023-04-05T00:13:44.851Z,96250.25
2023-04-05T00:14:46.535Z,96256.00
2023-04-05T00:15:49.115Z,96253.84
2023-04-05T00:16:50.887Z,96259.53
2023-04-05T00:17:54.266Z,96251.56
2023-04-05T00:19:00.251Z,96254.81
2023-04-05T00:20:02.256Z,96252.66
2023-04-05T00:21:04.240Z,96261.22
2023-04-05T00:22:05.760Z,96257.78
2023-04-05T00:23:10.537Z,96254.94
2023-04-05T00:24:15.481Z,96257.28
2023-04-05T00:25:18.427Z,96259.16
2023-04-05T00:26:21.378Z,96250.00
2023-04-05T00:27:22.869Z,96254.81
2023-04-05T00:28:24.489Z,96257.16
2023-04-05T00:29:26.052Z,96258.72
2023-04-05T00:30:29.170Z,96246.56
2023-04-05T00:31:30.967Z,96251.69
2023-04-05T00:32:32.908Z,96263.53
2023-04-05T00:33:34.611Z,96252.81
2023-04-05T00:34:36.205Z,96266.72
2023-04-05T00:35:37.751Z,96263.78
2023-04-05T00:36:39.364Z,96259.84
2023-04-05T00:37:40.946Z,96269.50
2023-04-05T00:38:43.519Z,96270.28
2023-04-05T00:39:45.254Z,96272.66
2023-04-05T00:40:46.805Z,96275.09
2023-04-05T00:41:48.831Z,96274.69
2023-04-05T00:42:50.666Z,96278.91
2023-04-05T00:43:52.270Z,96284.22
2023-04-05T00:44:53.765Z,96279.88
2023-04-05T00:45:56.377Z,96277.22
2023-04-05T00:46:57.902Z,96288.44
2023-04-05T00:48:00.468Z,96282.34
2023-04-05T00:49:02.597Z,96286.31
2023-04-05T00:50:05.921Z,96281.69
2023-04-05T00:51:11.616Z,96285.56
2023-04-05T00:52:14.764Z,96289.00
2023-04-05T00:53:21.727Z,96288.84
2023-04-05T00:54:25.587Z,96290.09
2023-04-05T00:55:27.747Z,96292.59
2023-04-05T00:56:30.521Z,96292.22
2023-04-05T00:57:32.320Z,96293.78
2023-04-05T00:58:33.941Z,96290.66
2023-04-05T00:59:35.702Z,96284.38
2023-04-05T01:00:39.858Z,96291.69
2023-04-05T01:01:41.971Z,96289.34
2023-04-05T01:02:57.935Z,96289.47
2023-04-05T01:04:03.608Z,96287.41
2023-04-05T01:05:21.926Z,96291.13
2023-04-05T01:06:27.530Z,96293.97
2023-04-05T01:07:37.109Z,96295.06
2023-04-05T01:08:55.948Z,96299.22
2023-04-05T01:09:59.919Z,96299.22
2023-04-05T01:11:05.618Z,96292.03
2023-04-05T01:12:09.993Z,96295.31
2023-04-05T01:13:11.576Z,96292.16
2023-04-05T01:14:13.200Z,96290.59
2023-04-05T01:15:14.890Z,96294.16
2023-04-05T01:16:17.029Z,96300.22
2023-04-05T01:17:23.332Z,96295.88
2023-04-05T01:18:26.248Z,96294.63
2023-04-05T01:19:30.152Z,96296.50
2023-04-05T01:20:37.410Z,96302.88
2023-04-05T01:22:26.440Z,96297.53
2023-04-05T01:23:58.639Z,96293.13
2023-04-05T01:25:41.695Z,96295.59
2023-04-05T01:26:46.212Z,96302.44
2023-04-05T01:28:19.153Z,96295.88
2023-04-05T01:29:42.046Z,96303.22
2023-04-05T01:30:51.851Z,96304.81
2023-04-05T01:32:03.028Z,96297.34
2023-04-05T01:33:23.761Z,96302.44
2023-04-05T01:34:31.339Z,96306.97
2023-04-05T01:35:59.534Z,96298.13
2023-04-05T01:37:08.589Z,96297.34
2023-04-05T01:38:14.849Z,96303.22
2023-04-05T01:39:21.319Z,96302.44
2023-04-05T01:40:23.676Z,96298.72
2023-04-05T01:41:26.553Z,96304.31
2023-04-05T01:42:28.196Z,96308.53
2023-04-05T01:43:29.738Z,96306.56
2023-04-05T01:44:31.399Z,96306.72
2023-04-05T01:45:32.953Z,96304.28
2023-04-05T01:46:34.849Z,96303.38
2023-04-05T01:47:36.498Z,96301.81
2023-04-05T01:48:38.047Z,96304.16
2023-04-05T01:49:39.615Z,96308.56
2023-04-05T01:50:41.427Z,96308.38
2023-04-05T01:51:43.167Z,96305.91
2023-04-05T01:52:44.752Z,96308.69
2023-04-05T01:53:46.292Z,96305.25
2023-04-05T01:54:47.822Z,96316.75
2023-04-05T01:55:49.317Z,96314.69
2023-04-05T01:56:50.973Z,96314.22
2023-04-05T01:57:55.729Z,96312.63
2023-04-05T01:58:57.295Z,96317.94
2023-04-05T01:59:58.864Z,96309.88
2023-04-05T02:01:00.516Z,96312.94
2023-04-05T02:02:02.140Z,96318.91
2023-04-05T02:03:03.788Z,96316.13
2023-04-05T02:04:05.389Z,96313.97
2023-04-05T02:05:07.392Z,96327.59
2023-04-05T02:06:08.931Z,96313.38
2023-04-05T02:07:10.672Z,96320.13
2023-04-05T02:08:13.356Z,96322.59
2023-04-05T02:09:14.901Z,96321.81
2023-04-05T02:10:16.539Z,96317.09
2023-04-05T02:11:18.136Z,96318.88
2023-04-05T02:12:19.780Z,96312.78
2023-04-05T02:13:23.951Z,96309.03
2023-04-05T02:14:25.949Z,96314.31
2023-04-05T02:15:27.520Z,96309.63
2023-04-05T02:16:33.469Z,96318.09
2023-04-05T02:17:39.169Z,96307.09
2023-04-05T02:18:41.498Z,96304.88
2023-04-05T02:19:46.846Z,96307.50
2023-04-05T02:20:51.783Z,96306.44
2023-04-05T02:21:56.445Z,96316.38
2023-04-05T02:22:58.537Z,96303.22
2023-04-05T02:24:00.470Z,96298.53
2023-04-05T02:25:03.499Z,96301.47
2023-04-05T02:26:05.448Z,96300.69
2023-04-05T02:27:07.635Z,96304.81
2023-04-05T02:28:11.374Z,96311.69
2023-04-05T02:29:13.587Z,96307.34
2023-04-05T02:30:15.319Z,96303.13
2023-04-05T02:31:16.976Z,96305.75
2023-04-05T02:32:18.514Z,96308.28
2023-04-05T02:33:22.579Z,96303.59
2023-04-05T02:34:24.160Z,96314.78
2023-04-05T02:35:25.818Z,96309.31
2023-04-05T02:36:30.453Z,96313.25
2023-04-05T02:37:31.982Z,96310.09
2023-04-05T02:38:34.084Z,96302.44
2023-04-05T02:39:35.625Z,96313.81
2023-04-05T02:40:37.598Z,96303.22
2023-04-05T02:41:39.166Z,96307.63
2023-04-05T02:42:41.370Z,96310.09
2023-04-05T02:43:43.197Z,96308.53
2023-04-05T02:44:44.775Z,96308.06
2023-04-05T02:45:47.066Z,96306.38
2023-04-05T02:46:48.771Z,96309.03
2023-04-05T02:47:50.340Z,96310.78
2023-04-05T02:48:52.460Z,96317.75
2023-04-05T02:49:54.028Z,96311.69
2023-04-05T02:50:56.040Z,96316.97
2023-04-05T02:51:57.586Z,96320.69
2023-04-05T02:52:59.140Z,96322.28
2023-04-05T02:54:02.777Z,96320.69
2023-04-05T02:55:07.714Z,96314.91
2023-04-05T02:56:09.240Z,96318.78
2023-04-05T02:57:11.693Z,96319.25
2023-04-05T02:58:14.418Z,96317.38
2023-04-05T02:59:16.340Z,96316.78
2023-04-05T03:00:18.648Z,96319.13
2023-04-05T03:01:20.373Z,96324.06
2023-04-05T03:02:21.983Z,96322.69
2023-04-05T03:03:23.802Z,96326.72
2023-04-05T03:04:26.980Z,96322.50
2023-04-05T03:05:28.833Z,96322.84
2023-04-05T03:06:31.607Z,96324.44
2023-04-05T03:07:33.366Z,96323.47
2023-04-05T03:08:36.967Z,96323.63
2023-04-05T03:09:39.268Z,96326.00
2023-04-05T03:10:45.074Z,96328.66
2023-04-05T03:11:46.686Z,96329.72
2023-04-05T03:12:48.529Z,96325.63
2023-04-05T03:13:50.255Z,96326.03
2023-04-05T03:14:51.855Z,96324.66
2023-04-05T03:15:56.542Z,96329.38
2023-04-05T03:16:58.342Z,96325.63
2023-04-05T03:18:00.098Z,96333.69
2023-04-05T03:19:02.515Z,96322.09
2023-04-05T03:20:09.021Z,96334.56
2023-04-05T03:21:11.447Z,96332.25
2023-04-05T03:22:13.014Z,96327.69
2023-04-05T03:23:14.527Z,96325.47
2023-04-05T03:24:17.035Z,96325.88
2023-04-05T03:25:19.065Z,96329.81
2023-04-05T03:26:20.640Z,96331.34
2023-04-05T03:27:22.192Z,96332.75
2023-04-05T03:28:24.577Z,96332.66
2023-04-05T03:29:26.172Z,96336.84
2023-04-05T03:30:28.275Z,96334.09
2023-04-05T03:31:30.639Z,96337.06
2023-04-05T03:32:32.393Z,96339.41
2023-04-05T03:33:34.428Z,96340.41
2023-04-05T03:34:35.987Z,96335.09
2023-04-05T03:35:37.577Z,96338.22
2023-04-05T03:36:42.673Z,96326.06
2023-04-05T03:37:44.301Z,96332.91
2023-04-05T03:38:46.083Z,96333.88
2023-04-05T03:39:48.392Z,96331.84
2023-04-05T03:40:49.989Z,96333.41
2023-04-05T03:41:51.564Z,96329.03
2023-04-05T03:42:53.179Z,96340.41
2023-04-05T03:43:54.679Z,96341.94
2023-04-05T03:44:56.395Z,96335.09
2023-04-05T03:45:58.275Z,96340.59
2023-04-05T03:46:59.876Z,96338.13
2023-04-05T03:48:03.357Z,96334.78
2023-04-05T03:49:06.172Z,96336.53
2023-04-05T03:50:08.808Z,96340.75
2023-04-05T03:51:10.349Z,96336.06
2023-04-05T03:52:11.870Z,96341.75
2023-04-05T03:53:13.467Z,96346.28
2023-04-05T03:54:15.023Z,96346.38
2023-04-05T03:55:19.241Z,96349.81
2023-04-05T03:56:22.084Z,96347.34
2023-04-05T03:57:23.793Z,96348.94
2023-04-05T03:58:28.399Z,96347.84
2023-04-05T03:59:30.139Z,96350.22
2023-04-05T04:00:31.926Z,96343.06
2023-04-05T04:01:33.439Z,96342.56
2023-04-05T04:02:35.003Z,96339.63
2023-04-05T04:03:37.446Z,96343.53
2023-04-05T04:04:39.084Z,96347.47
2023-04-05T04:05:41.052Z,96343.41
2023-04-05T04:06:43.012Z,96342.94
2023-04-05T04:07:44.990Z,96348.81
2023-04-05T04:08:46.550Z,96345.47
2023-04-05T04:09:48.098Z,96340.66
2023-04-05T04:10:50.391Z,96340.59
2023-04-05T04:11:51.953Z,96351.34
2023-04-05T04:12:53.473Z,96351.75
2023-04-05T04:13:55.078Z,96349.78
2023-04-05T04:14:56.823Z,96343.09
2023-04-05T04:15:58.946Z,96356.09
2023-04-05T04:17:00.526Z,96355.28
2023-04-05T04:18:02.161Z,96349.88
2023-04-05T04:19:03.720Z,96352.22
2023-04-05T04:20:11.043Z,96357.63
2023-04-05T04:21:13.605Z,96354.63
2023-04-05T04:22:20.649Z,96358.06
2023-04-05T04:23:22.649Z,96353.13
2023-04-05T04:24:27.103Z,96362.34
2023-04-05T04:25:31.000Z,96360.66
2023-04-05T04:26:37.573Z,96359.59
2023-04-05T04:27:42.017Z,96356.84
2023-04-05T04:28:43.928Z,96359.94
2023-04-05T04:29:48.235Z,96373.19
2023-04-05T04:30:49.820Z,96365.25
2023-04-05T04:31:51.526Z,96361.53
2023-04-05T04:32:53.740Z,96367.44
2023-04-05T04:33:55.521Z,96372.22
2023-04-05T04:34:58.664Z,96376.97
2023-04-05T04:36:02.846Z,96376.84
2023-04-05T04:37:04.415Z,96372.22
2023-04-05T04:38:07.568Z,96372.50
2023-04-05T04:39:10.326Z,96373.31
2023-04-05T04:40:15.666Z,96366.44
2023-04-05T04:41:20.163Z,96377.44
2023-04-05T04:42:22.832Z,96371.06
2023-04-05T04:43:26.813Z,96379.09
2023-04-05T04:44:31.430Z,96378.81
2023-04-05T04:45:38.159Z,96382.25
2023-04-05T04:46:43.253Z,96380.78
2023-04-05T04:47:47.194Z,96376.84
2023-04-05T04:48:48.913Z,96377.97
2023-04-05T04:49:50.607Z,96374.31
2023-04-05T04:50:52.136Z,96377.16
2023-04-05T04:51:53.817Z,96373.31
2023-04-05T04:52:55.528Z,96377.84
2023-04-05T04:53:57.066Z,96380.19
2023-04-05T04:54:59.265Z,96380.78
2023-04-05T04:56:00.796Z,96376.34
2023-04-05T04:57:03.044Z,96375.75
2023-04-05T04:58:10.253Z,96379.97
2023-04-05T04:59:11.859Z,96384.81
2023-04-05T05:00:15.553Z,96377.31
2023-04-05T05:01:17.144Z,96372.81
2023-04-05T05:02:18.751Z,96377.81
2023-04-05T05:03:22.396Z,96373.69
2023-04-05T05:04:24.700Z,96374.78
2023-04-05T05:05:27.548Z,96381.16
2023-04-05T05:06:29.900Z,96379.00
2023-04-05T05:07:31.464Z,96372.13
2023-04-05T05:08:33.220Z,96383.81
2023-04-05T05:09:34.891Z,96378.03
2023-04-05T05:10:36.549Z,96379.00
2023-04-05T05:11:38.065Z,96376.25
2023-04-05T05:12:39.662Z,96377.94
2023-04-05T05:13:41.807Z,96382.38
2023-04-05T05:14:43.395Z,96387.66
2023-04-05T05:15:44.906Z,96385.50
2023-04-05T05:16:46.452Z,96392.06
2023-04-05T05:17:52.936Z,96386.94
2023-04-05T05:18:55.458Z,96391.19
2023-04-05T05:19:56.989Z,96394.28
2023-04-05T05:20:58.524Z,96395.88
2023-04-05T05:22:00.039Z,96397.34
2023-04-05T05:23:03.945Z,96388.78
2023-04-05T05:24:07.521Z,96391.31
2023-04-05T05:25:10.027Z,96396.84
2023-04-05T05:26:13.244Z,96393.78
2023-04-05T05:27:14.978Z,96403.88
2023-04-05T05:28:17.464Z,96400.16
2023-04-05T05:29:20.622Z,96398.59
2023-04-05T05:30:22.471Z,96394.25
2023-04-05T05:31:24.211Z,96404.84
2023-04-05T05:32:25.966Z,96397.56
2023-04-05T05:33:27.588Z,96408.00
2023-04-05T05:34:29.187Z,96405.47
2023-04-05T05:35:30.817Z,96403.28
2023-04-05T05:36:32.801Z,96401.72
2023-04-05T05:37:35.016Z,96405.25
2023-04-05T05:38:36.581Z,96398.19
2023-04-05T05:39:38.278Z,96399.78
2023-04-05T05:40:40.028Z,96400.00
2023-04-05T05:41:42.731Z,96402.13
2023-04-05T05:42:45.286Z,96412.16
2023-04-05T05:43:48.437Z,96405.28
2023-04-05T05:44:50.038Z,96415.28
2023-04-05T05:45:51.647Z,96409.41
2023-04-05T05:46:53.231Z,96405.69
2023-04-05T05:47:56.807Z,96414.72
2023-04-05T05:48:58.412Z,96407.72
2023-04-05T05:50:00.135Z,96405.84
2023-04-05T05:51:02.302Z,96404.47
2023-04-05T05:52:04.433Z,96405.06
2023-04-05T05:53:06.186Z,96407.72
2023-04-05T05:54:07.716Z,96408.22
2023-04-05T05:55:09.525Z,96406.03
2023-04-05T05:56:11.498Z,96401.72
2023-04-05T05:57:13.153Z,96409.19
2023-04-05T05:58:14.728Z,96408.13
2023-04-05T05:59:16.416Z,96405.81
2023-04-05T06:00:18.853Z,96402.69
2023-04-05T06:01:23.090Z,96404.28
2023-04-05T06:02:24.728Z,96407.03
2023-04-05T06:03:26.538Z,96410.75
2023-04-05T06:04:29.250Z,96413.88
2023-04-05T06:05:30.882Z,96414.28
2023-04-05T06:06:36.020Z,96406.19
2023-04-05T06:07:39.365Z,96407.66
2023-04-05T06:08:40.950Z,96407.22
2023-04-05T06:09:42.769Z,96410.53
2023-04-05T06:10:44.340Z,96407.91
2023-04-05T06:11:55.933Z,96407.78
2023-04-05T06:12:59.200Z,96414.59
2023-04-05T06:14:00.863Z,96414.78
2023-04-05T06:15:02.694Z,96417.31
2023-04-05T06:16:04.643Z,96413.47
2023-04-05T06:17:06.225Z,96415.16
2023-04-05T06:18:07.885Z,96410.94
2023-04-05T06:19:09.616Z,96411.41
2023-04-05T06:20:11.926Z,96414.19
2023-04-05T06:21:14.398Z,96410.75
2023-04-05T06:22:16.627Z,96413.19
2023-04-05T06:23:21.309Z,96415.84
2023-04-05T06:24:23.386Z,96415.97
2023-04-05T06:25:25.055Z,96411.78
2023-04-05T06:26:30.132Z,96418.16
2023-04-05T06:27:31.981Z,96424.41
2023-04-05T06:28:33.559Z,96420.06
2023-04-05T06:29:35.121Z,96423.69
2023-04-05T06:30:36.661Z,96419.66
2023-04-05T06:31:38.314Z,96411.88
2023-04-05T06:32:39.948Z,96412.50
2023-04-05T06:33:41.943Z,96421.41
2023-04-05T06:34:46.484Z,96419.84
2023-04-05T06:35:48.139Z,96424.97
2023-04-05T06:36:50.114Z,96420.88
2023-04-05T06:37:51.905Z,96420.56
2023-04-05T06:38:53.565Z,96423.91
2023-04-05T06:39:55.180Z,96427.06
2023-04-05T06:40:56.723Z,96427.91
2023-04-05T06:41:58.285Z,96428.28
2023-04-05T06:42:59.802Z,96429.25
2023-04-05T06:44:01.351Z,96430.84
2023-04-05T06:45:04.354Z,96420.22
2023-04-05T06:46:08.986Z,96429.13
2023-04-05T06:47:10.589Z,96434.56
2023-04-05T06:48:12.189Z,96433.78
2023-04-05T06:49:13.871Z,96428.19
2023-04-05T06:50:15.795Z,96431.63
2023-04-05T06:51:18.654Z,96436.72
2023-04-05T06:52:20.320Z,96436.72
2023-04-05T06:53:22.485Z,96435.75
2023-04-05T06:54:24.969Z,96440.94
2023-04-05T06:55:26.622Z,96439.25
2023-04-05T06:56:28.563Z,96443.03
2023-04-05T06:57:30.159Z,96442.41
2023-04-05T06:58:31.759Z,96456.34
2023-04-05T06:59:33.585Z,96451.59
2023-04-05T07:00:35.174Z,96449.19
2023-04-05T07:01:36.722Z,96448.06
2023-04-05T07:02:38.347Z,96452.28
2023-04-05T07:03:39.961Z,96453.88
2023-04-05T07:04:41.521Z,96460.38
2023-04-05T07:05:57.453Z,96460.44
2023-04-05T07:07:02.193Z,96459.56
2023-04-05T07:08:04.006Z,96461.41
2023-04-05T07:09:05.677Z,96464.84
2023-04-05T07:10:07.801Z,96462.66
2023-04-05T07:11:09.379Z,96467.38
2023-04-05T07:12:11.059Z,96466.16
2023-04-05T07:13:12.616Z,96465.56
2023-04-05T07:14:14.212Z,96466.16
2023-04-05T07:15:15.981Z,96469.91
2023-04-05T07:16:19.436Z,96463.81
2023-04-05T07:17:21.786Z,96469.72
2023-04-05T07:18:23.337Z,96469.56
2023-04-05T07:19:24.942Z,96471.72
2023-04-05T07:20:26.532Z,96474.03
2023-04-05T07:21:28.138Z,96481.88
2023-04-05T07:22:29.728Z,96475.94
2023-04-05T07:23:31.398Z,96476.59
2023-04-05T07:24:33.323Z,96482.72
2023-04-05T07:25:34.871Z,96478.66
2023-04-05T07:26:37.692Z,96486.44
2023-04-05T07:27:39.920Z,96485.84
2023-04-05T07:28:42.086Z,96478.34
2023-04-05T07:29:45.939Z,96480.09
2023-04-05T07:30:49.377Z,96472.78
2023-04-05T07:31:51.099Z,96477.16
2023-04-05T07:32:52.846Z,96479.13
2023-04-05T07:33:54.464Z,96481.66
2023-04-05T07:34:56.790Z,96486.97
2023-04-05T07:35:58.855Z,96480.88
2023-04-05T07:37:00.734Z,96492.91
2023-04-05T07:38:02.641Z,96490.84
2023-04-05T07:39:05.343Z,96488.38
2023-04-05T07:40:07.798Z,96489.75
2023-04-05T07:41:09.323Z,96482.88
2023-04-05T07:42:10.953Z,96484.28
2023-04-05T07:43:12.719Z,96485.84
2023-04-05T07:44:14.297Z,96482.09
2023-04-05T07:45:15.949Z,96486.94
2023-04-05T07:46:17.855Z,96490.06
2023-04-05T07:47:19.465Z,96487.91
2023-04-05T07:48:21.132Z,96491.50
2023-04-05T07:49:28.861Z,96494.66
2023-04-05T07:50:30.498Z,96494.22
2023-04-05T07:51:35.258Z,96487.50
2023-04-05T07:52:36.842Z,96488.47
2023-04-05T07:53:38.444Z,96490.03
2023-04-05T07:54:41.514Z,96489.41
2023-04-05T07:55:43.503Z,96488.03
2023-04-05T07:56:45.125Z,96485.69
2023-04-05T07:57:47.391Z,96493.53
2023-04-05T07:58:50.537Z,96493.25
2023-04-05T07:59:54.858Z,96485.00
2023-04-05T08:01:03.920Z,96490.56
2023-04-05T08:02:14.151Z,96491.81
2023-04-05T08:03:16.045Z,96495.75
2023-04-05T08:04:19.093Z,96490.94
2023-04-05T08:05:20.906Z,96499.69
2023-04-05T08:06:22.494Z,96498.56
2023-04-05T08:07:24.408Z,96488.56
2023-04-05T08:08:26.085Z,96491.81
2023-04-05T08:09:27.628Z,96498.53
2023-04-05T08:10:29.215Z,96482.31
2023-04-05T08:11:32.037Z,96492.94
2023-04-05T08:12:34.844Z,96497.03
2023-04-05T08:13:39.905Z,96498.41
2023-04-05T08:14:41.530Z,96497.25
2023-04-05T08:15:43.081Z,96498.25
2023-04-05T08:16:44.721Z,96500.78
2023-04-05T08:17:46.496Z,96501.22
2023-04-05T08:18:48.143Z,96494.38
2023-04-05T08:19:49.779Z,96491.72
2023-04-05T08:20:52.517Z,96490.13
2023-04-05T08:21:54.094Z,96498.13
2023-04-05T08:22:55.659Z,96497.97
2023-04-05T08:23:58.205Z,96490.47
2023-04-05T08:24:59.773Z,96492.41
2023-04-05T08:26:01.723Z,96487.75
2023-04-05T08:27:03.304Z,96489.66
2023-04-05T08:28:05.536Z,96490.00
2023-04-05T08:29:07.074Z,96492.16
2023-04-05T08:30:09.229Z,96498.59
2023-04-05T08:31:13.431Z,96502.53
2023-04-05T08:32:15.638Z,96498.63
2023-04-05T08:33:17.510Z,96492.22
2023-04-05T08:34:19.148Z,96491.59
2023-04-05T08:35:20.881Z,96496.31
2023-04-05T08:36:22.431Z,96492.56
2023-04-05T08:37:24.043Z,96496.47
2023-04-05T08:38:26.505Z,96491.78
2023-04-05T08:39:28.173Z,96497.56
2023-04-05T08:40:48.508Z,96491.00
2023-04-05T08:42:17.277Z,96491.03
2023-04-05T08:43:26.056Z,96484.47
2023-04-05T08:44:31.793Z,96489.31
2023-04-05T08:45:34.546Z,96484.78
2023-04-05T08:46:36.665Z,96489.50
2023-04-05T08:47:41.307Z,96496.25
2023-04-05T08:48:43.157Z,96486.84
2023-04-05T08:49:45.457Z,96491.53
2023-04-05T08:50:51.721Z,96485.28
2023-04-05T08:51:54.694Z,96490.75
2023-04-05T08:52:56.277Z,96483.22
2023-04-05T08:53:59.951Z,96484.81
2023-04-05T08:55:01.550Z,96485.28
2023-04-05T08:56:04.263Z,96487.78
2023-04-05T08:57:07.694Z,96485.44
2023-04-05T08:58:13.797Z,96480.41
2023-04-05T08:59:16.968Z,96490.28
2023-04-05T09:00:19.616Z,96495.31
2023-04-05T09:01:21.739Z,96486.84
2023-04-05T09:02:25.217Z,96498.59
2023-04-05T09:03:36.570Z,96486.69
2023-04-05T09:04:44.823Z,96487.47
2023-04-05T09:05:49.968Z,96485.75
2023-04-05T09:06:52.753Z,96496.09
2023-04-05T09:07:57.190Z,96496.09
2023-04-05T09:08:58.996Z,96495.31
2023-04-05T09:10:01.762Z,96497.03
2023-04-05T09:11:03.407Z,96497.53
2023-04-05T09:12:06.024Z,96499.53
2023-04-05T09:13:11.316Z,96505.50
2023-04-05T09:14:12.924Z,96499.38
2023-04-05T09:15:16.065Z,96505.50
2023-04-05T09:16:18.396Z,96503.78
2023-04-05T09:17:19.978Z,96500.03
2023-04-05T09:18:26.986Z,96501.56
2023-04-05T09:19:29.196Z,96494.69
2023-04-05T09:20:30.874Z,96497.19
2023-04-05T09:22:01.341Z,96504.09
2023-04-05T09:23:03.254Z,96495.75
2023-04-05T09:24:05.200Z,96497.00
2023-04-05T09:25:07.190Z,96493.72
2023-04-05T09:26:23.872Z,96498.25
2023-04-05T09:27:25.692Z,96499.16
2023-04-05T09:28:47.630Z,96496.66
2023-04-05T09:29:50.502Z,96494.47
2023-04-05T09:30:52.039Z,96496.06
2023-04-05T09:31:54.615Z,96488.50
2023-04-05T09:32:57.273Z,96492.28
2023-04-05T09:34:03.662Z,96493.53
2023-04-05T09:35:05.913Z,96496.06
2023-04-05T09:36:07.781Z,96489.59
2023-04-05T09:37:20.082Z,96490.81
2023-04-05T09:38:42.394Z,96492.97
2023-04-05T09:39:44.847Z,96486.28
2023-04-05T09:40:48.276Z,96486.75
2023-04-05T09:42:11.974Z,96485.97
2023-04-05T09:43:34.115Z,96490.19
2023-04-05T09:45:01.424Z,96484.81
2023-04-05T09:46:03.139Z,96484.53
2023-04-05T09:47:16.526Z,96488.50
2023-04-05T09:48:18.137Z,96485.84
2023-04-05T09:49:33.878Z,96483.34
2023-04-05T09:50:36.471Z,96487.72
2023-04-05T09:51:38.895Z,96485.53
2023-04-05T09:52:40.889Z,96492.75
2023-04-05T09:54:08.025Z,96480.94
2023-04-05T09:55:10.579Z,96483.72
2023-04-05T09:56:13.156Z,96481.84
2023-04-05T09:57:17.405Z,96479.03
2023-04-05T09:58:21.164Z,96483.56
2023-04-05T09:59:22.911Z,96480.75
2023-04-05T10:00:24.510Z,96485.28
2023-04-05T10:01:31.874Z,96477.75
2023-04-05T10:02:38.195Z,96484.00
2023-04-05T10:03:48.219Z,96480.34
2023-04-05T10:04:50.189Z,96470.56
2023-04-05T10:05:57.950Z,96476.50
2023-04-05T10:06:59.726Z,96474.47
2023-04-05T10:08:02.091Z,96477.59
2023-04-05T10:09:05.280Z,96474.28
2023-04-05T10:10:07.987Z,96470.97
2023-04-05T10:11:11.072Z,96475.03
2023-04-05T10:12:26.150Z,96473.03
2023-04-05T10:13:28.355Z,96475.72
2023-04-05T10:14:30.001Z,96481.47
2023-04-05T10:15:32.921Z,96480.50
2023-04-05T10:16:53.557Z,96480.63
2023-04-05T10:18:08.243Z,96477.53
2023-04-05T10:19:21.038Z,96479.13
2023-04-05T10:20:24.265Z,96471.72
2023-04-05T10:21:31.081Z,96474.38
2023-04-05T10:23:03.569Z,96473.09
2023-04-05T10:24:21.118Z,96468.00
2023-04-05T10:25:43.009Z,96467.88
2023-04-05T10:27:03.458Z,96468.38
2023-04-05T10:28:10.479Z,96469.03
2023-04-05T10:29:25.078Z,96463.81
2023-04-05T10:30:35.630Z,96465.88
2023-04-05T10:31:51.330Z,96465.50
2023-04-05T10:33:12.654Z,96464.94
2023-04-05T10:34:31.278Z,96464.56
2023-04-05T10:35:51.693Z,96465.31
2023-04-05T10:37:01.993Z,96467.00
2023-04-05T10:38:23.350Z,96469.84
2023-04-05T10:39:35.525Z,96468.28
2023-04-05T10:40:37.932Z,96466.72
2023-04-05T10:41:52.875Z,96465.50
2023-04-05T10:42:54.568Z,96468.19
2023-04-05T10:43:58.299Z,96470.22
2023-04-05T10:45:04.863Z,96468.56
2023-04-05T10:46:07.873Z,96474.81
2023-04-05T10:47:14.013Z,96463.53
2023-04-05T10:48:28.882Z,96475.50
2023-04-05T10:49:39.439Z,96475.97
2023-04-05T10:50:42.555Z,96475.31
2023-04-05T10:51:45.126Z,96470.28
2023-04-05T10:52:48.267Z,96471.53
2023-04-05T10:53:50.614Z,96469.19
2023-04-05T10:54:52.791Z,96472.59
2023-04-05T10:55:55.955Z,96473.44
2023-04-05T10:56:58.629Z,96472.84
2023-04-05T10:58:00.564Z,96463.94
2023-04-05T10:59:02.724Z,96474.88
2023-04-05T11:00:05.312Z,96470.91
2023-04-05T11:01:08.127Z,96469.09
2023-04-05T11:02:10.807Z,96468.09
2023-04-05T11:03:42.269Z,96469.63
2023-04-05T11:04:44.101Z,96456.75
2023-04-05T11:05:45.896Z,96466.50
2023-04-05T11:06:48.274Z,96470.78
2023-04-05T11:07:51.093Z,96471.06
2023-04-05T11:09:17.079Z,96459.97
2023-04-05T11:10:19.553Z,96469.25
2023-04-05T11:11:23.116Z,96468.69
2023-04-05T11:12:46.329Z,96466.75
2023-04-05T11:13:58.492Z,96464.28
2023-04-05T11:15:27.672Z,96463.81
2023-04-05T11:16:40.347Z,96459.16
2023-04-05T11:17:42.050Z,96468.91
2023-04-05T11:18:48.513Z,96469.59
2023-04-05T11:19:52.396Z,96463.78
2023-04-05T11:21:06.206Z,96461.56
2023-04-05T11:22:07.847Z,96466.59
2023-04-05T11:23:11.072Z,96468.47
2023-04-05T11:24:17.924Z,96472.56
2023-04-05T11:25:24.808Z,96473.81
2023-04-05T11:26:32.693Z,96471.16
2023-04-05T11:27:41.183Z,96472.25
2023-04-05T11:28:42.794Z,96472.56
2023-04-05T11:29:51.916Z,96471.59
2023-04-05T11:30:59.022Z,96471.25
2023-04-05T11:32:11.678Z,96470.38
2023-04-05T11:33:36.675Z,96469.47
2023-04-05T11:34:38.346Z,96472.47
2023-04-05T11:35:39.879Z,96465.34
2023-04-05T11:36:48.402Z,96469.28
2023-04-05T11:38:02.372Z,96473.88
2023-04-05T11:39:19.519Z,96473.44
2023-04-05T11:40:47.742Z,96457.41
2023-04-05T11:41:55.398Z,96465.63
2023-04-05T11:43:09.352Z,96464.28
2023-04-05T11:44:17.379Z,96465.44
2023-04-05T11:45:19.362Z,96468.13
2023-04-05T11:46:21.457Z,96471.47
2023-04-05T11:47:23.257Z,96465.22
2023-04-05T11:48:25.012Z,96472.69
2023-04-05T11:49:26.565Z,96471.22
2023-04-05T11:50:28.772Z,96463.41
2023-04-05T11:51:33.003Z,96469.94
2023-04-05T11:52:34.526Z,96464.69
2023-04-05T11:53:37.192Z,96465.53
2023-04-05T11:54:39.900Z,96464.31
2023-04-05T11:55:44.336Z,96468.63
2023-04-05T11:56:52.151Z,96463.75
2023-04-05T11:57:53.793Z,96467.31
2023-04-05T11:58:59.430Z,96460.34
2023-04-05T12:00:01.604Z,96462.81
2023-04-05T12:01:05.455Z,96452.34
2023-04-05T12:02:08.319Z,96456.78
2023-04-05T12:03:17.787Z,96463.56
2023-04-05T12:04:19.461Z,96459.47
2023-04-05T12:05:21.081Z,96461.34
2023-04-05T12:06:24.548Z,96465.13
2023-04-05T12:07:36.733Z,96464.03
2023-04-05T12:08:40.484Z,96461.09
2023-04-05T12:10:08.302Z,96462.22
2023-04-05T12:11:11.808Z,96462.91
2023-04-05T12:12:17.315Z,96466.69
2023-04-05T12:13:26.113Z,96463.25
2023-04-05T12:14:27.673Z,96458.34
2023-04-05T12:15:29.249Z,96458.94
2023-04-05T12:16:30.926Z,96458.94
2023-04-05T12:17:42.894Z,96460.03
2023-04-05T12:18:44.419Z,96463.72
2023-04-05T12:19:46.231Z,96461.59
2023-04-05T12:20:48.017Z,96454.81
2023-04-05T12:21:49.649Z,96456.47
2023-04-05T12:22:56.790Z,96454.28
2023-04-05T12:23:58.532Z,96464.03
2023-04-05T12:25:00.381Z,96459.16
2023-04-05T12:26:02.256Z,96453.78
2023-04-05T12:27:03.982Z,96456.91
2023-04-05T12:28:08.336Z,96458.16
2023-04-05T12:29:09.857Z,96456.25
2023-04-05T12:30:22.911Z,96454.28
2023-04-05T12:31:44.310Z,96458.53
2023-04-05T12:32:48.778Z,96447.59
2023-04-05T12:33:51.137Z,96448.97
2023-04-05T12:34:57.861Z,96448.91